Time;durP1;ratioP1;P1;durP2;ratioP2;P2;SDS_P1;SDS_P2;PMS_P1;PMS_P2;Temp;Humidity;BMP_temperature;BMP_pressure;BME280_temperature;BME280_humidity;BME280_pressure;Samples;Min_cycle;Max_cycle;Signal;HPM_P1;HPM_P2
2023/04/14 00:00:54;;;;;;;11.48;5.40;;;;;;;3.08;100.00;100869.59;4959335;28;20097;-86
2023/04/14 00:03:20;;;;;;;7.90;5.05;;;;;;;3.05;100.00;100868.75;4939239;28;20053;-87
2023/04/14 00:05:47;;;;;;;10.95;5.32;;;;;;;3.03;100.00;100873.84;4937427;28;20236;-86
2023/04/14 00:08:13;;;;;;;11.88;5.45;;;;;;;2.99;100.00;100879.81;4961789;28;20035;-87
2023/04/14 00:10:38;;;;;;;11.18;5.15;;;;;;;2.95;100.00;100877.19;4961350;28;20431;-85
2023/04/14 00:13:03;;;;;;;9.48;4.97;;;;;;;2.95;100.00;100883.16;4960718;28;20611;-87
2023/04/14 00:15:29;;;;;;;10.52;5.03;;;;;;;2.91;100.00;100885.69;4960173;28;20365;-87
2023/04/14 00:17:54;;;;;;;10.27;5.10;;;;;;;2.91;100.00;100890.81;4960520;28;20027;-87
2023/04/14 00:20:19;;;;;;;9.85;5.18;;;;;;;2.83;100.00;100875.41;4959868;28;20089;-87
2023/04/14 00:22:45;;;;;;;9.45;4.93;;;;;;;2.85;100.00;100881.41;4946259;28;20058;-86
2023/04/14 00:25:10;;;;;;;12.75;5.18;;;;;;;2.81;100.00;100877.09;4958693;28;20110;-87
2023/04/14 00:27:36;;;;;;;10.27;5.15;;;;;;;2.81;100.00;100887.31;4960655;28;20113;-86
2023/04/14 00:30:01;;;;;;;12.65;4.82;;;;;;;2.76;100.00;100883.88;4960312;28;20046;-86
2023/04/14 00:32:26;;;;;;;11.75;4.60;;;;;;;2.74;100.00;100885.53;4946857;28;20502;-86
2023/04/14 00:34:51;;;;;;;8.75;4.90;;;;;;;2.68;100.00;100883.81;4942159;28;20030;-86
2023/04/14 00:37:17;;;;;;;12.17;4.50;;;;;;;2.65;100.00;100877.81;4959716;28;20066;-86
2023/04/14 00:39:42;;;;;;;10.25;4.63;;;;;;;2.64;100.00;100883.78;4959789;28;20285;-87
2023/04/14 00:42:08;;;;;;;10.95;4.95;;;;;;;2.55;100.00;100878.56;4960661;28;20033;-87
2023/04/14 00:44:33;;;;;;;9.80;4.90;;;;;;;2.56;100.00;100886.25;4958824;28;20038;-87
2023/04/14 00:47:00;;;;;;;8.75;4.60;;;;;;;2.55;100.00;100886.22;4936882;28;20447;-87
2023/04/14 00:49:25;;;;;;;11.15;4.40;;;;;;;2.52;100.00;100888.78;4958380;28;20058;-87
2023/04/14 00:51:55;;;;;;;10.05;4.72;;;;;;;2.44;100.00;100885.28;4936080;28;20078;-86
2023/04/14 00:54:20;;;;;;;9.00;4.57;;;;;;;2.42;100.00;100892.06;4959837;28;20031;-86
2023/04/14 00:56:46;;;;;;;10.30;4.75;;;;;;;2.39;100.00;100890.31;4959450;28;20031;-87
2023/04/14 00:59:12;;;;;;;9.30;4.82;;;;;;;2.39;100.00;100903.97;4941671;28;20069;-87
2023/04/14 01:01:39;;;;;;;12.48;4.70;;;;;;;2.32;100.00;100902.19;4960257;28;20030;-87
2023/04/14 01:04:05;;;;;;;11.60;4.65;;;;;;;2.25;100.00;100892.75;4945716;28;20100;-87
2023/04/14 01:06:31;;;;;;;8.30;4.75;;;;;;;2.29;100.00;100906.44;4957893;28;20078;-86
2023/04/14 01:08:57;;;;;;;11.45;4.70;;;;;;;2.28;100.00;100909.84;4959106;28;20118;-87
2023/04/14 01:11:47;;;;;;;8.15;4.20;;;;;;;2.27;100.00;100903.84;4958310;28;20029;-87
2023/04/14 01:14:30;;;;;;;9.27;4.43;;;;;;;2.23;100.00;100899.56;4958616;28;20838;-86
2023/04/14 01:17:21;;;;;;;8.45;4.20;;;;;;;2.26;100.00;100904.69;4958771;28;20042;-86
2023/04/14 01:20:24;;;;;;;8.77;4.22;;;;;;;2.23;100.00;100904.69;4937208;28;20034;-87
2023/04/14 01:22:58;;;;;;;11.10;4.40;;;;;;;2.13;100.00;100891.75;4958908;28;20026;-87
2023/04/14 01:25:38;;;;;;;9.55;4.68;;;;;;;2.18;100.00;100900.34;4954841;28;20030;-86
2023/04/14 01:28:35;;;;;;;8.02;4.40;;;;;;;2.15;100.00;100901.16;4959825;28;20033;-86
2023/04/14 01:31:19;;;;;;;9.90;4.28;;;;;;;2.11;100.00;100904.53;4945299;28;20184;-87
2023/04/14 01:33:51;;;;;;;7.18;4.22;;;;;;;2.07;100.00;100900.22;4945400;28;20046;-86
2023/04/14 01:36:25;;;;;;;11.73;5.25;;;;;;;2.01;100.00;100892.47;4961621;28;20401;-87
2023/04/14 01:38:53;;;;;;;8.48;4.50;;;;;;;2.02;100.00;100898.47;4946448;28;20033;-87
2023/04/14 01:41:21;;;;;;;11.02;4.60;;;;;;;1.93;100.00;100884.72;4963887;28;20035;-87
2023/04/14 01:43:50;;;;;;;8.02;4.20;;;;;;;1.89;100.00;100887.22;4963870;28;20065;-87
2023/04/14 01:46:16;;;;;;;8.57;3.95;;;;;;;1.77;100.00;100879.41;4959999;28;20042;-87
2023/04/14 01:48:44;;;;;;;8.25;4.35;;;;;;;1.90;100.00;100902.59;4947015;28;20448;-87
2023/04/14 01:51:12;;;;;;;11.60;4.20;;;;;;;1.90;100.00;100905.16;4941022;28;20043;-87
2023/04/14 01:57:37;;;;;;;9.07;4.40;;;;;;;1.92;100.00;100917.91;4936437;28;20034;-87
2023/04/14 02:00:08;;;;;;;9.13;4.35;;;;;;;1.80;100.00;100897.34;4964426;28;20878;-85
2023/04/14 02:02:37;;;;;;;10.30;4.50;;;;;;;1.89;100.00;100917.91;4940876;28;20388;-86
2023/04/14 02:05:03;;;;;;;8.15;4.15;;;;;;;1.81;100.00;100911.81;4962286;28;20606;-86
2023/04/14 02:07:31;;;;;;;9.88;4.40;;;;;;;1.76;100.00;100908.38;4961591;28;20023;-86
2023/04/14 02:09:59;;;;;;;6.88;4.15;;;;;;;1.80;100.00;100915.22;4963759;28;20030;-86
2023/04/14 02:12:27;;;;;;;8.93;4.10;;;;;;;1.84;100.00;100914.44;4960966;28;20039;-86
2023/04/14 02:14:54;;;;;;;9.07;4.00;;;;;;;1.80;100.00;100913.53;4963492;28;20031;-86
2023/04/14 02:17:20;;;;;;;10.13;3.97;;;;;;;1.79;100.00;100919.47;4960716;28;20460;-86
2023/04/14 02:19:46;;;;;;;9.00;3.67;;;;;;;1.73;100.00;100918.53;4963482;28;20055;-86
2023/04/14 02:22:12;;;;;;;7.75;3.72;;;;;;;1.68;100.00;100913.38;4947914;28;20078;-86
2023/04/14 02:24:38;;;;;;;9.77;4.03;;;;;;;1.76;100.00;100927.13;4943744;28;20022;-86
2023/04/14 02:27:10;;;;;;;9.35;4.00;;;;;;;1.64;100.00;100916.69;4960796;28;20576;-85
2023/04/14 02:29:39;;;;;;;8.68;4.68;;;;;;;1.65;100.00;100915.00;4943102;28;20507;-86
2023/04/14 02:32:10;;;;;;;8.98;4.20;;;;;;;1.73;100.00;100937.28;4945418;28;20098;-86
2023/04/14 02:34:43;;;;;;;9.98;3.85;;;;;;;1.77;100.00;100935.63;4961363;28;20448;-86
2023/04/14 02:37:17;;;;;;;9.33;3.43;;;;;;;1.69;100.00;100932.97;4960935;28;20034;-86
2023/04/14 02:39:49;;;;;;;9.23;3.70;;;;;;;1.69;100.00;100935.53;4960957;28;20030;-86
2023/04/14 02:42:16;;;;;;;6.38;3.72;;;;;;;1.63;100.00;100942.25;4961977;28;20934;-86
2023/04/14 02:44:48;;;;;;;7.13;3.65;;;;;;;1.61;100.00;100942.22;4962000;28;20038;-86
2023/04/14 02:47:31;;;;;;;9.05;3.90;;;;;;;1.62;100.00;100948.19;4939196;28;20106;-86
2023/04/14 02:49:58;;;;;;;11.73;4.13;;;;;;;1.62;100.00;100941.38;4962396;28;20058;-86
2023/04/14 02:52:28;;;;;;;9.55;3.80;;;;;;;1.69;100.00;100952.56;4962889;28;20062;-86
2023/04/14 02:54:55;;;;;;;7.93;3.42;;;;;;;1.56;100.00;100928.53;4961835;28;20031;-86
2023/04/14 02:57:21;;;;;;;9.05;3.70;;;;;;;1.64;100.00;100946.53;4953105;28;20102;-86
2023/04/14 02:59:48;;;;;;;6.13;3.60;;;;;;;1.65;100.00;100950.78;4962674;28;20050;-86
2023/04/14 03:02:15;;;;;;;10.18;3.88;;;;;;;1.58;100.00;100947.28;4962361;28;20030;-86
2023/04/14 03:04:40;;;;;;;6.40;3.50;;;;;;;1.56;100.00;100951.53;4958375;28;21364;-86
2023/04/14 03:07:08;;;;;;;8.77;3.78;;;;;;;1.50;100.00;100952.28;4962503;28;20627;-86
2023/04/14 03:09:33;;;;;;;8.70;3.67;;;;;;;1.48;100.00;100953.97;4938219;28;20034;-86
2023/04/14 03:12:01;;;;;;;8.40;3.50;;;;;;;1.46;100.00;100947.09;4961527;28;20034;-86
2023/04/14 03:14:27;;;;;;;7.40;3.42;;;;;;;1.46;100.00;100950.53;4961244;28;20042;-86
2023/04/14 03:16:54;;;;;;;9.15;4.20;;;;;;;1.49;100.00;100955.69;4962513;28;20026;-86
2023/04/14 03:19:22;;;;;;;8.75;3.63;;;;;;;1.47;100.00;100961.59;4961666;28;20034;-86
2023/04/14 03:21:49;;;;;;;8.32;4.00;;;;;;;1.43;100.00;100955.56;4960981;28;20022;-86
2023/04/14 03:24:19;;;;;;;7.13;3.40;;;;;;;1.43;100.00;100955.56;4960149;28;20022;-86
2023/04/14 03:26:46;;;;;;;8.95;3.55;;;;;;;1.37;100.00;100947.81;4962833;28;20031;-86
2023/04/14 03:29:14;;;;;;;8.73;3.70;;;;;;;1.44;100.00;100952.19;4960564;28;20381;-85
2023/04/14 03:31:43;;;;;;;8.85;3.80;;;;;;;1.38;100.00;100936.78;4944302;28;20058;-85
2023/04/14 03:34:09;;;;;;;8.55;3.70;;;;;;;1.39;100.00;100943.59;4936680;28;20039;-85
2023/04/14 03:36:35;;;;;;;7.50;3.35;;;;;;;1.39;100.00;100951.25;4960151;28;20073;-86
2023/04/14 03:39:04;;;;;;;6.55;3.60;;;;;;;1.36;100.00;100943.56;4961015;28;20080;-86
2023/04/14 03:41:36;;;;;;;9.38;3.53;;;;;;;1.32;100.00;100941.78;4961551;28;20059;-86
2023/04/14 03:44:03;;;;;;;6.63;3.30;;;;;;;1.35;100.00;100949.50;4960840;28;20030;-86
2023/04/14 03:46:29;;;;;;;7.88;3.50;;;;;;;1.34;100.00;100950.34;4961415;28;20039;-86
2023/04/14 03:48:57;;;;;;;8.32;3.42;;;;;;;1.28;100.00;100941.72;4943049;28;20026;-86
2023/04/14 03:51:26;;;;;;;7.63;3.50;;;;;;;1.34;100.00;100952.03;4960078;28;20031;-86
2023/04/14 04:02:05;;;;;;;;;;;;;;;;;;;;;
2023/04/14 04:04:33;;;;;;;7.30;3.78;;;;;;;1.28;100.00;100945.16;4886287;29;20052;-87
2023/04/14 04:06:59;;;;;;;10.05;4.00;;;;;;;1.43;100.00;100957.28;4892023;29;20557;-87
2023/04/14 04:09:26;;;;;;;10.65;4.15;;;;;;;1.48;100.00;100969.28;4932599;28;20065;-87
2023/04/14 04:11:52;;;;;;;9.30;3.85;;;;;;;1.45;100.00;100960.69;4946747;28;21101;-87
2023/04/14 04:14:20;;;;;;;9.32;3.85;;;;;;;1.48;100.00;100973.53;4937979;28;20022;-87
2023/04/14 04:16:48;;;;;;;10.60;4.00;;;;;;;1.47;100.00;100971.81;4960066;28;20034;-86
2023/04/14 04:19:14;;;;;;;8.30;4.15;;;;;;;1.47;100.00;100972.66;4959051;28;20037;-86
2023/04/14 04:21:43;;;;;;;12.23;4.38;;;;;;;1.47;100.00;100979.47;4960857;28;20029;-85
2023/04/14 04:24:11;;;;;;;11.77;4.28;;;;;;;1.49;100.00;100976.13;4937997;28;20125;-85
2023/04/14 04:26:36;;;;;;;10.25;4.32;;;;;;;1.47;100.00;100977.78;4961153;28;20042;-85
2023/04/14 04:29:03;;;;;;;9.13;4.05;;;;;;;1.49;100.00;100973.56;4960408;28;20035;-85
2023/04/14 04:31:31;;;;;;;10.02;3.92;;;;;;;1.50;100.00;100975.25;4960290;28;20034;-86
2023/04/14 04:33:57;;;;;;;9.57;4.95;;;;;;;1.53;100.00;100975.31;4959891;28;20029;-86
2023/04/14 04:36:24;;;;;;;11.93;4.43;;;;;;;1.56;100.00;100977.06;4936917;28;20134;-85
2023/04/14 04:38:50;;;;;;;11.77;4.45;;;;;;;1.58;100.00;100981.34;4942638;28;20487;-86
2023/04/14 04:41:26;;;;;;;9.35;3.80;;;;;;;1.57;100.00;100982.19;4942478;28;20039;-86
2023/04/14 04:43:51;;;;;;;9.88;4.20;;;;;;;1.58;100.00;100978.78;4959416;28;20046;-86
2023/04/14 04:46:41;;;;;;;11.18;4.50;;;;;;;1.57;100.00;100974.50;4961551;28;20034;-86
2023/04/14 04:49:06;;;;;;;10.30;4.32;;;;;;;1.56;100.00;100970.25;4956826;28;20034;-86
2023/04/14 04:51:31;;;;;;;9.77;3.83;;;;;;;1.50;100.00;100961.66;4957178;28;20164;-86
2023/04/14 04:53:57;;;;;;;10.93;4.50;;;;;;;1.48;100.00;100964.19;4940683;28;20086;-87
2023/04/14 04:56:22;;;;;;;8.35;4.18;;;;;;;1.58;100.00;100975.38;4960178;28;20045;-87
2023/04/14 04:58:48;;;;;;;11.30;4.60;;;;;;;1.59;100.00;100979.66;4958121;28;20029;-86
2023/04/14 05:01:15;;;;;;;8.50;4.28;;;;;;;1.62;100.00;100971.19;4959046;28;20037;-86
2023/04/14 05:03:41;;;;;;;11.00;4.43;;;;;;;1.63;100.00;100975.47;4936094;28;20030;-86
2023/04/14 05:06:06;;;;;;;9.35;4.15;;;;;;;1.65;100.00;100977.19;4936315;28;20055;-86
2023/04/14 05:08:32;;;;;;;9.93;4.00;;;;;;;1.61;100.00;100970.31;4937031;28;20507;-86
2023/04/14 05:10:57;;;;;;;8.40;4.20;;;;;;;1.68;100.00;100966.16;4960061;28;20499;-86
2023/04/14 05:13:22;;;;;;;11.98;4.20;;;;;;;1.70;100.00;100965.34;4958485;28;20061;-86
2023/04/14 05:15:47;;;;;;;9.68;4.00;;;;;;;1.69;100.00;100967.88;4958202;28;20511;-86
2023/04/14 05:18:13;;;;;;;8.50;4.25;;;;;;;1.70;100.00;100964.50;4957256;28;20066;-86
2023/04/14 05:20:38;;;;;;;9.93;4.10;;;;;;;1.74;100.00;100972.22;4957373;28;20110;-89
2023/04/14 05:23:04;;;;;;;9.57;4.38;;;;;;;1.79;100.00;100964.59;4942354;28;20625;-87
2023/04/14 05:25:29;;;;;;;7.50;4.30;;;;;;;1.83;100.00;100966.38;4934037;28;20360;-85
2023/04/14 05:27:55;;;;;;;10.93;4.35;;;;;;;1.91;100.00;100978.41;4957743;28;20112;-86
2023/04/14 05:30:20;;;;;;;9.15;4.00;;;;;;;1.97;100.00;100969.97;4936880;28;20121;-86
2023/04/14 05:32:45;;;;;;;12.73;3.97;;;;;;;2.03;100.00;100974.31;4959414;28;20065;-86
2023/04/14 05:35:14;;;;;;;11.63;4.40;;;;;;;2.04;100.00;100963.25;4956103;28;20118;-86
2023/04/14 05:37:40;;;;;;;9.35;3.80;;;;;;;2.18;100.00;100980.47;4955298;28;20031;-86
2023/04/14 05:40:06;;;;;;;8.75;4.20;;;;;;;2.23;100.00;100975.41;4960502;28;20039;-87
2023/04/14 05:42:31;;;;;;;8.13;3.83;;;;;;;2.28;100.00;100981.44;4959515;28;20026;-88
2023/04/14 05:44:57;;;;;;;10.88;4.43;;;;;;;2.30;100.00;100965.28;4959086;28;20030;-87
2023/04/14 05:47:22;;;;;;;9.80;3.83;;;;;;;2.32;100.00;100965.31;4960192;28;20038;-87
2023/04/14 05:49:47;;;;;;;9.63;4.10;;;;;;;2.41;100.00;100967.09;4959385;28;20619;-87
2023/04/14 05:52:13;;;;;;;10.73;4.60;;;;;;;2.42;100.00;100961.13;4956833;28;20071;-88
2023/04/14 05:54:38;;;;;;;8.35;4.15;;;;;;;2.51;100.00;100964.66;4935972;28;20597;-87
2023/04/14 05:57:04;;;;;;;10.25;4.18;;;;;;;2.60;100.00;100974.13;4957945;28;20022;-87
2023/04/14 05:59:30;;;;;;;13.52;5.43;;;;;;;2.67;100.00;100975.91;4960202;28;20034;-88
2023/04/14 06:01:56;;;;;;;10.13;4.60;;;;;;;2.84;100.00;100979.50;4959769;28;20034;-87
2023/04/14 06:04:21;;;;;;;11.10;5.25;;;;;;;2.98;100.00;100980.50;4960000;28;20055;-87
2023/04/14 06:06:46;;;;;;;13.45;4.65;;;;;;;3.09;100.00;100984.00;4959155;28;20424;-86
2023/04/14 06:09:12;;;;;;;12.52;4.90;;;;;;;3.20;100.00;100979.00;4959533;28;20100;-86
2023/04/14 06:11:38;;;;;;;13.00;4.95;;;;;;;3.31;100.00;100973.94;4958703;28;20023;-88
2023/04/14 06:14:06;;;;;;;10.82;4.45;;;;;;;3.51;100.00;100978.38;4957244;28;20026;-86
2023/04/14 06:16:31;;;;;;;12.43;4.38;;;;;;;3.64;100.00;100969.06;4959591;28;20033;-85
2023/04/14 06:18:57;;;;;;;10.23;4.40;;;;;;;3.80;100.00;100973.44;4945738;28;20023;-85
2023/04/14 06:21:22;;;;;;;11.25;4.28;;;;;;;3.98;100.00;100964.97;4961920;28;20400;-86
2023/04/14 06:23:47;;;;;;;10.73;4.40;;;;;;;4.33;100.00;100957.44;4963559;28;20380;-86
2023/04/14 06:26:13;;;;;;;11.67;4.93;;;;;;;4.73;100.00;100961.81;4944324;28;20444;-87
2023/04/14 06:28:38;;;;;;;12.35;4.30;;;;;;;4.95;100.00;100956.72;4962365;28;20282;-85
2023/04/14 06:31:03;;;;;;;14.98;4.45;;;;;;;5.13;100.00;100951.56;4962611;28;20070;-85
2023/04/14 06:33:29;;;;;;;13.32;4.50;;;;;;;5.21;100.00;100949.00;4961889;28;20031;-86
2023/04/14 06:35:54;;;;;;;11.60;4.38;;;;;;;5.30;100.00;100949.88;4945830;28;20377;-85
2023/04/14 06:38:20;;;;;;;12.43;5.05;;;;;;;5.56;100.00;100954.97;4938565;28;20035;-86
2023/04/14 06:40:45;;;;;;;11.55;4.72;;;;;;;6.02;100.00;100958.31;4963149;28;20081;-85
2023/04/14 06:43:11;;;;;;;10.77;4.40;;;;;;;6.53;100.00;100959.84;4939152;28;20019;-85
2023/04/14 06:45:36;;;;;;;12.93;4.55;;;;;;;7.07;100.00;100963.78;4962336;28;20102;-85
2023/04/14 06:48:02;;;;;;;11.55;4.47;;;;;;;7.59;100.00;100955.59;4962579;28;20022;-86
2023/04/14 06:50:27;;;;;;;12.35;4.75;;;;;;;8.18;100.00;100959.25;4945681;28;20045;-87
2023/04/14 06:52:53;;;;;;;10.18;4.35;;;;;;;8.83;97.47;100950.66;4962466;28;20117;-87
2023/04/14 06:55:20;;;;;;;12.70;4.37;;;;;;;9.37;92.49;100954.09;4962525;28;20361;-86
2023/04/14 06:57:45;;;;;;;12.40;4.70;;;;;;;9.56;89.35;100944.25;4960888;28;20282;-88
2023/04/14 07:00:12;;;;;;;12.73;4.60;;;;;;;10.02;89.38;100949.44;4945243;28;20027;-89
2023/04/14 07:02:37;;;;;;;9.40;4.60;;;;;;;10.36;86.90;100948.78;4962903;28;20218;-88
2023/04/14 07:05:04;;;;;;;10.38;4.47;;;;;;;10.57;85.68;100925.88;4938808;28;20213;-89
2023/04/14 07:07:34;;;;;;;9.85;4.53;;;;;;;11.15;84.22;100947.81;4944581;28;20042;-88
2023/04/14 07:09:59;;;;;;;9.43;4.45;;;;;;;11.53;83.48;100915.72;4962804;28;20457;-88
2023/04/14 07:12:25;;;;;;;7.57;4.20;;;;;;;11.99;81.92;100933.53;4945280;28;20929;-88
2023/04/14 07:14:51;;;;;;;9.45;4.47;;;;;;;11.98;80.57;100913.63;4962731;28;20037;-89
2023/04/14 07:17:17;;;;;;;9.40;4.50;;;;;;;12.42;76.91;100927.91;4936131;28;20046;-88
2023/04/14 07:19:43;;;;;;;10.85;4.57;;;;;;;13.17;75.74;100915.22;4960932;28;20171;-88
2023/04/14 07:22:08;;;;;;;11.68;5.00;;;;;;;13.61;74.96;100918.88;4961627;28;20045;-88
2023/04/14 07:24:33;;;;;;;13.73;4.70;;;;;;;13.76;73.49;100921.81;4962170;28;20131;-88
2023/04/14 07:27:01;;;;;;;10.52;4.80;;;;;;;13.80;75.09;100915.56;4957968;28;20647;-88
2023/04/14 07:29:28;;;;;;;10.07;4.40;;;;;;;13.62;76.70;100923.19;4938357;28;20065;-88
2023/04/14 07:31:54;;;;;;;11.48;4.40;;;;;;;13.29;70.10;100920.84;4960235;28;20045;-88
2023/04/14 07:34:19;;;;;;;10.50;4.75;;;;;;;13.06;69.21;100911.16;4960257;28;20027;-88
2023/04/14 07:36:44;;;;;;;10.30;4.47;;;;;;;13.09;70.47;100917.19;4959382;28;20039;-87
2023/04/14 07:39:10;;;;;;;10.65;4.43;;;;;;;12.92;73.65;100915.97;4959140;28;20042;-88
2023/04/14 07:41:35;;;;;;;10.90;4.65;;;;;;;12.89;75.22;100910.03;4960052;28;20062;-88
2023/04/14 07:44:01;;;;;;;8.93;4.55;;;;;;;13.11;74.91;100890.19;4959944;28;20031;-87
2023/04/14 07:46:27;;;;;;;8.60;4.18;;;;;;;13.55;71.88;100901.72;4956945;28;20476;-88
2023/04/14 07:48:52;;;;;;;10.40;4.35;;;;;;;13.78;75.32;100895.72;4954156;28;20042;-89
2023/04/14 07:51:18;;;;;;;9.82;3.92;;;;;;;13.81;69.54;100890.38;4957269;28;20027;-88
2023/04/14 07:53:43;;;;;;;10.75;4.10;;;;;;;13.90;68.94;100900.47;4939629;28;20062;-88
2023/04/14 07:56:10;;;;;;;8.15;4.20;;;;;;;13.90;63.91;100905.69;4939105;28;20423;-88
2023/04/14 07:58:35;;;;;;;9.30;3.70;;;;;;;14.10;64.36;100897.97;4961159;28;20182;-88
2023/04/14 08:01:01;;;;;;;7.72;3.45;;;;;;;14.13;62.82;100891.78;4962814;28;20113;-88
2023/04/14 08:03:27;;;;;;;9.30;3.78;;;;;;;14.04;64.62;100894.75;4962751;28;20035;-88
2023/04/14 08:05:55;;;;;;;9.35;3.50;;;;;;;14.04;66.15;100890.41;4961273;28;20051;-89
2023/04/14 08:08:20;;;;;;;10.57;3.90;;;;;;;14.63;67.14;100879.44;4962169;28;20110;-88
2023/04/14 08:10:46;;;;;;;8.25;3.53;;;;;;;15.64;63.33;100903.06;4961650;28;20114;-89
2023/04/14 08:13:11;;;;;;;8.25;3.78;;;;;;;16.72;62.25;100902.50;4962337;28;20038;-89
2023/04/14 08:15:37;;;;;;;8.52;3.50;;;;;;;17.87;58.87;100894.03;4960542;28;20089;-89
2023/04/14 08:18:02;;;;;;;9.25;3.33;;;;;;;18.71;57.15;100882.41;4936964;28;20504;-88
2023/04/14 08:20:28;;;;;;;9.88;3.28;;;;;;;19.38;50.38;100896.06;4938417;28;20571;-88
2023/04/14 08:22:55;;;;;;;7.38;3.33;;;;;;;19.67;51.95;100871.50;4956801;28;20652;-88
2023/04/14 08:25:20;;;;;;;7.10;3.17;;;;;;;20.22;47.91;100878.59;4944972;28;20040;-88
2023/04/14 08:27:46;;;;;;;6.32;2.90;;;;;;;20.43;47.82;100880.75;4961188;28;20030;-87
2023/04/14 08:30:11;;;;;;;6.75;2.60;;;;;;;20.36;45.33;100868.91;4961259;28;20026;-88
2023/04/14 08:32:37;;;;;;;7.60;2.95;;;;;;;20.46;49.46;100880.56;4957940;28;20035;-86
2023/04/14 08:35:02;;;;;;;7.63;2.85;;;;;;;20.07;45.16;100862.81;4939110;28;20086;-88
2023/04/14 08:37:30;;;;;;;6.97;2.78;;;;;;;19.70;48.03;100893.22;4958884;28;20073;-90
2023/04/14 08:39:55;;;;;;;6.63;3.00;;;;;;;19.08;45.00;100893.44;4940150;28;20117;-87
2023/04/14 08:42:21;;;;;;;6.07;2.60;;;;;;;18.65;50.55;100895.88;4958975;28;20161;-87
2023/04/14 08:44:47;;;;;;;7.78;2.95;;;;;;;18.33;50.79;100892.41;4960910;28;20101;-87
2023/04/14 08:47:18;;;;;;;7.80;2.88;;;;;;;18.19;50.91;100894.06;4961233;28;20084;-87
2023/04/14 08:50:06;;;;;;;6.85;3.00;;;;;;;18.03;49.49;100894.88;4948320;28;20603;-88
2023/04/14 08:52:38;;;;;;;6.22;2.53;;;;;;;17.86;46.18;100887.09;4960068;28;20027;-88
2023/04/14 08:55:06;;;;;;;7.60;3.00;;;;;;;17.87;48.78;100896.66;4961990;28;20062;-87
2023/04/14 08:57:32;;;;;;;7.68;2.80;;;;;;;18.05;49.88;100894.81;4960970;28;20054;-89
2023/04/14 08:59:58;;;;;;;7.72;2.92;;;;;;;18.41;50.07;100879.69;4959392;28;20074;-87
2023/04/14 09:02:24;;;;;;;6.38;2.80;;;;;;;18.79;49.22;100893.31;4960276;28;20023;-87
2023/04/14 09:04:51;;;;;;;6.85;2.40;;;;;;;18.80;47.82;100873.16;4960578;28;20181;-88
2023/04/14 09:07:17;;;;;;;6.32;2.38;;;;;;;18.47;48.75;100865.38;4960732;28;20031;-89
2023/04/14 09:09:44;;;;;;;8.90;2.50;;;;;;;17.94;46.06;100871.81;4945890;28;20122;-88
2023/04/14 09:12:11;;;;;;;6.85;2.40;;;;;;;17.51;47.79;100867.94;4960682;28;20039;-87
2023/04/14 09:14:38;;;;;;;5.63;2.40;;;;;;;17.26;50.22;100886.66;4950154;28;20142;-89
2023/04/14 09:17:05;;;;;;;6.38;2.47;;;;;;;17.03;49.58;100879.13;4936690;28;20035;-88
2023/04/14 09:19:32;;;;;;;6.88;2.35;;;;;;;16.82;49.12;100888.03;4959282;28;20130;-88
2023/04/14 09:21:58;;;;;;;6.75;1.90;;;;;;;16.77;48.79;100888.28;4957927;28;20049;-88
2023/04/14 09:24:29;;;;;;;6.00;1.88;;;;;;;16.81;52.38;100879.34;4958930;28;20023;-87
2023/04/14 09:26:55;;;;;;;7.70;2.17;;;;;;;16.87;52.67;100880.81;4959834;28;20087;-89
2023/04/14 09:29:21;;;;;;;8.05;1.65;;;;;;;16.74;51.65;100866.63;4958217;28;21473;-88
2023/04/14 09:31:46;;;;;;;5.05;1.60;;;;;;;16.72;47.96;100871.09;4960487;28;20520;-89
2023/04/14 09:34:17;;;;;;;6.03;2.10;;;;;;;16.68;48.81;100874.78;4959751;28;20038;-88
2023/04/14 09:36:59;;;;;;;4.50;1.70;;;;;;;16.74;51.72;100880.56;4960223;28;20023;-88
2023/04/14 09:39:25;;;;;;;6.03;2.00;;;;;;;16.76;50.69;100870.88;4942059;28;20513;-88
2023/04/14 09:41:50;;;;;;;4.88;1.83;;;;;;;16.73;50.38;100865.78;4958451;28;20484;-88
2023/04/14 09:44:16;;;;;;;5.38;1.80;;;;;;;16.51;49.13;100862.47;4956560;28;20119;-87
2023/04/14 09:47:06;;;;;;;4.30;1.83;;;;;;;16.40;49.61;100862.13;4959340;28;20502;-87
2023/04/14 09:49:33;;;;;;;6.18;1.98;;;;;;;16.33;49.75;100858.09;4960124;28;20027;-89
2023/04/14 09:52:07;;;;;;;5.35;1.50;;;;;;;16.38;48.19;100862.19;4963064;28;20036;-87
2023/04/14 09:54:33;;;;;;;7.80;1.67;;;;;;;16.15;45.14;100863.28;4964377;28;20090;-87
2023/04/14 09:57:00;;;;;;;3.78;1.30;;;;;;;15.95;47.80;100850.28;4941432;28;20154;-88
2023/04/14 09:59:33;;;;;;;7.13;1.70;;;;;;;15.94;49.82;100845.13;4941931;28;20029;-88
2023/04/14 10:02:02;;;;;;;5.68;1.92;;;;;;;15.98;51.08;100854.50;4964025;28;20027;-88
2023/04/14 10:04:28;;;;;;;5.50;1.60;;;;;;;15.88;48.35;100829.72;4965386;28;20035;-91
2023/04/14 10:06:57;;;;;;;7.13;1.70;;;;;;;15.99;50.25;100862.28;4964718;28;20123;-90
2023/04/14 10:09:26;;;;;;;5.97;1.83;;;;;;;15.86;50.11;100840.22;4963690;28;20328;-89
2023/04/14 10:12:12;;;;;;;3.85;1.63;;;;;;;15.91;50.51;100853.94;4961901;28;20447;-89
2023/04/14 10:14:42;;;;;;;4.75;1.48;;;;;;;15.69;48.89;100832.31;4962311;28;20077;-89
2023/04/14 10:17:08;;;;;;;6.00;1.60;;;;;;;15.69;49.42;100835.75;4963199;28;20495;-89
2023/04/14 10:19:36;;;;;;;5.45;1.67;;;;;;;15.71;50.09;100841.78;4962792;28;20026;-87
2023/04/14 10:22:03;;;;;;;4.10;1.42;;;;;;;15.65;48.53;100820.28;4942295;28;20027;-86
2023/04/14 10:24:29;;;;;;;5.63;1.60;;;;;;;15.74;49.19;100814.66;4962457;28;20033;-86
2023/04/14 10:26:54;;;;;;;2.67;1.25;;;;;;;15.72;48.52;100821.72;4962975;28;20026;-86
2023/04/14 10:29:20;;;;;;;4.68;1.50;;;;;;;15.69;50.04;100817.47;4962291;28;20030;-86
2023/04/14 10:32:04;;;;;;;3.97;1.50;;;;;;;15.78;52.50;100819.66;4963429;28;20027;-86
2023/04/14 10:34:31;;;;;;;3.88;1.30;;;;;;;15.80;49.45;100819.59;4962721;28;20116;-86
2023/04/14 10:37:14;;;;;;;5.03;1.40;;;;;;;15.82;49.58;100811.69;4948826;28;20042;-86
2023/04/14 10:39:41;;;;;;;3.75;1.10;;;;;;;15.87;48.29;100817.56;4963258;28;20041;-90
2023/04/14 10:42:07;;;;;;;7.22;1.58;;;;;;;15.53;46.25;100806.03;4962360;28;20029;-89
2023/04/14 10:44:34;;;;;;;6.43;1.50;;;;;;;15.15;49.11;100819.88;4963069;28;20487;-89
2023/04/14 10:47:03;;;;;;;6.72;1.52;;;;;;;14.92;48.52;100823.47;4962081;28;20125;-90
2023/04/14 10:49:39;;;;;;;6.15;1.60;;;;;;;14.95;50.58;100824.16;4945422;28;20031;-88
2023/04/14 10:52:25;;;;;;;5.03;1.30;;;;;;;15.02;49.63;100812.56;4948261;28;20035;-89
2023/04/14 10:55:06;;;;;;;5.07;1.40;;;;;;;15.19;51.91;100798.78;4962578;28;20034;-89
2023/04/14 10:57:37;;;;;;;4.35;1.63;;;;;;;15.25;47.07;100811.56;4947305;28;20041;-88
2023/04/14 11:00:19;;;;;;;6.57;1.50;;;;;;;15.29;48.90;100799.22;4963015;28;20023;-89
2023/04/14 11:03:09;;;;;;;5.60;1.40;;;;;;;15.26;50.15;100799.38;4963106;28;20031;-88
2023/04/14 11:05:34;;;;;;;3.83;1.40;;;;;;;15.08;47.51;100787.94;4948527;28;20162;-88
2023/04/14 11:08:10;;;;;;;2.67;1.35;;;;;;;15.11;48.47;100794.81;4926773;29;20182;-89
2023/04/14 11:10:36;;;;;;;5.68;1.50;;;;;;;15.02;46.55;100789.06;4924067;29;20023;-89
2023/04/14 11:13:07;;;;;;;5.28;1.70;;;;;;;14.65;47.74;100781.09;4919946;29;20461;-89
2023/04/14 11:15:41;;;;;;;4.80;1.40;;;;;;;14.49;49.65;100793.91;4923149;29;20154;-89
2023/04/14 11:18:12;;;;;;;7.80;1.80;;;;;;;14.54;50.05;100789.34;4925140;29;20063;-90
2023/04/14 11:20:40;;;;;;;3.63;1.38;;;;;;;14.66;51.15;100785.41;4923443;29;20034;-90
2023/04/14 11:23:06;;;;;;;6.65;1.63;;;;;;;14.85;48.12;100794.16;4924681;29;20019;-90
2023/04/14 11:25:33;;;;;;;6.25;1.77;;;;;;;15.01;48.94;100781.31;4922480;29;20956;-89
2023/04/14 11:28:02;;;;;;;5.13;1.60;;;;;;;15.07;47.13;100774.97;4924119;29;20524;-89
2023/04/14 11:30:28;;;;;;;5.90;1.58;;;;;;;14.95;48.74;100769.34;4923119;29;20393;-89
2023/04/14 11:32:58;;;;;;;2.95;1.48;;;;;;;15.06;50.07;100778.50;4924315;29;20512;-88
2023/04/14 11:35:26;;;;;;;3.38;1.60;;;;;;;15.18;48.91;100778.81;4923056;29;20044;-88
2023/04/14 11:37:53;;;;;;;3.90;1.50;;;;;;;15.29;48.06;100780.94;4924441;29;20027;-88
2023/04/14 11:40:18;;;;;;;4.82;1.60;;;;;;;15.40;49.99;100782.19;4918157;29;20046;-88